sensor_id;sensor_type;location;lat;lon;timestamp;P1;durP1;ratioP1;P2;durP2;ratioP2
73563;SDS011;61834;50.196;6.454;2022-12-29T00:01:46;0.00;;;0.00;;
73563;SDS011;61834;50.196;6.454;2022-12-29T00:04:12;0.00;;;0.00;;
73563;SDS011;61834;50.196;6.454;2022-12-29T00:06:39;0.05;;;0.00;;
73563;SDS011;61834;50.196;6.454;2022-12-29T00:09:05;0.28;;;0.00;;
73563;SDS011;61834;50.196;6.454;2022-12-29T00:11:30;0.00;;;0.00;;
73563;SDS011;61834;50.196;6.454;2022-12-29T00:13:59;1.30;;;1.00;;
73563;SDS011;61834;50.196;6.454;2022-12-29T00:16:43;0.00;;;0.00;;
73563;SDS011;61834;50.196;6.454;2022-12-29T00:19:10;0.00;;;0.00;;
73563;SDS011;61834;50.196;6.454;2022-12-29T00:21:55;0.32;;;0.00;;
73563;SDS011;61834;50.196;6.454;2022-12-29T00:24:40;0.88;;;0.00;;
73563;SDS011;61834;50.196;6.454;2022-12-29T00:32:56;0.20;;;0.00;;
73563;SDS011;61834;50.196;6.454;2022-12-29T00:35:44;0.00;;;0.00;;
73563;SDS011;61834;50.196;6.454;2022-12-29T00:38:12;0.00;;;0.00;;
73563;SDS011;61834;50.196;6.454;2022-12-29T00:40:57;0.00;;;0.00;;
73563;SDS011;61834;50.196;6.454;2022-12-29T00:43:41;0.00;;;0.00;;
73563;SDS011;61834;50.196;6.454;2022-12-29T00:46:25;0.40;;;0.03;;
73563;SDS011;61834;50.196;6.454;2022-12-29T00:48:50;0.45;;;0.00;;
73563;SDS011;61834;50.196;6.454;2022-12-29T00:51:34;0.00;;;0.00;;
73563;SDS011;61834;50.196;6.454;2022-12-29T00:54:00;0.47;;;0.10;;
73563;SDS011;61834;50.196;6.454;2022-12-29T00:56:25;0.40;;;0.10;;
73563;SDS011;61834;50.196;6.454;2022-12-29T00:58:51;0.63;;;0.13;;
73563;SDS011;61834;50.196;6.454;2022-12-29T01:01:16;0.98;;;0.00;;
73563;SDS011;61834;50.196;6.454;2022-12-29T01:03:42;0.10;;;0.00;;
73563;SDS011;61834;50.196;6.454;2022-12-29T01:06:08;0.57;;;0.10;;
73563;SDS011;61834;50.196;6.454;2022-12-29T01:08:36;0.17;;;0.10;;
73563;SDS011;61834;50.196;6.454;2022-12-29T01:11:12;0.50;;;0.20;;
73563;SDS011;61834;50.196;6.454;2022-12-29T01:13:42;0.63;;;0.10;;
73563;SDS011;61834;50.196;6.454;2022-12-29T01:16:10;0.57;;;0.20;;
73563;SDS011;61834;50.196;6.454;2022-12-29T01:18:35;0.55;;;0.20;;
73563;SDS011;61834;50.196;6.454;2022-12-29T01:21:01;0.20;;;0.05;;
73563;SDS011;61834;50.196;6.454;2022-12-29T01:23:31;0.52;;;0.13;;
73563;SDS011;61834;50.196;6.454;2022-12-29T01:25:56;0.73;;;0.10;;
73563;SDS011;61834;50.196;6.454;2022-12-29T01:28:23;0.93;;;0.43;;
73563;SDS011;61834;50.196;6.454;2022-12-29T01:30:51;0.47;;;0.10;;
73563;SDS011;61834;50.196;6.454;2022-12-29T01:33:16;0.20;;;0.10;;
73563;SDS011;61834;50.196;6.454;2022-12-29T01:35:44;0.52;;;0.10;;
73563;SDS011;61834;50.196;6.454;2022-12-29T01:38:10;0.50;;;0.10;;
73563;SDS011;61834;50.196;6.454;2022-12-29T01:40:42;0.38;;;0.10;;
73563;SDS011;61834;50.196;6.454;2022-12-29T01:43:09;0.10;;;0.10;;
73563;SDS011;61834;50.196;6.454;2022-12-29T01:45:38;0.55;;;0.10;;
73563;SDS011;61834;50.196;6.454;2022-12-29T01:48:09;0.52;;;0.10;;
73563;SDS011;61834;50.196;6.454;2022-12-29T01:50:36;0.38;;;0.20;;
73563;SDS011;61834;50.196;6.454;2022-12-29T01:53:08;0.60;;;0.17;;
73563;SDS011;61834;50.196;6.454;2022-12-29T01:55:39;0.13;;;0.10;;
73563;SDS011;61834;50.196;6.454;2022-12-29T01:58:07;0.60;;;0.10;;
73563;SDS011;61834;50.196;6.454;2022-12-29T02:00:35;0.15;;;0.10;;
73563;SDS011;61834;50.196;6.454;2022-12-29T02:03:02;0.30;;;0.10;;
73563;SDS011;61834;50.196;6.454;2022-12-29T02:05:44;0.10;;;0.10;;
73563;SDS011;61834;50.196;6.454;2022-12-29T02:08:17;0.77;;;0.20;;
73563;SDS011;61834;50.196;6.454;2022-12-29T02:10:44;0.32;;;0.10;;
73563;SDS011;61834;50.196;6.454;2022-12-29T02:13:10;1.13;;;0.20;;
73563;SDS011;61834;50.196;6.454;2022-12-29T02:15:41;0.50;;;0.20;;
73563;SDS011;61834;50.196;6.454;2022-12-29T02:18:34;0.52;;;0.20;;
73563;SDS011;61834;50.196;6.454;2022-12-29T02:21:14;0.30;;;0.22;;
73563;SDS011;61834;50.196;6.454;2022-12-29T02:38:25;0.57;;;0.20;;
73563;SDS011;61834;50.196;6.454;2022-12-29T02:40:59;0.10;;;0.00;;
73563;SDS011;61834;50.196;6.454;2022-12-29T02:46:26;0.25;;;0.00;;
73563;SDS011;61834;50.196;6.454;2022-12-29T02:54:30;0.63;;;0.10;;
73563;SDS011;61834;50.196;6.454;2022-12-29T03:56:34;0.73;;;0.20;;
73563;SDS011;61834;50.196;6.454;2022-12-29T03:59:01;0.30;;;0.20;;
73563;SDS011;61834;50.196;6.454;2022-12-29T04:01:36;0.47;;;0.25;;
73563;SDS011;61834;50.196;6.454;2022-12-29T04:04:02;1.48;;;0.13;;
73563;SDS011;61834;50.196;6.454;2022-12-29T04:06:27;0.47;;;0.25;;
73563;SDS011;61834;50.196;6.454;2022-12-29T04:08:59;0.60;;;0.20;;
73563;SDS011;61834;50.196;6.454;2022-12-29T04:11:26;1.92;;;0.40;;
73563;SDS011;61834;50.196;6.454;2022-12-29T04:13:53;0.95;;;0.20;;
73563;SDS011;61834;50.196;6.454;2022-12-29T04:16:22;0.75;;;0.30;;
73563;SDS011;61834;50.196;6.454;2022-12-29T04:18:49;0.82;;;0.30;;
73563;SDS011;61834;50.196;6.454;2022-12-29T04:21:15;0.35;;;0.20;;
73563;SDS011;61834;50.196;6.454;2022-12-29T04:23:41;1.08;;;0.40;;
73563;SDS011;61834;50.196;6.454;2022-12-29T04:26:08;0.60;;;0.30;;
73563;SDS011;61834;50.196;6.454;2022-12-29T04:28:44;1.17;;;0.22;;
73563;SDS011;61834;50.196;6.454;2022-12-29T04:31:23;1.45;;;0.20;;
73563;SDS011;61834;50.196;6.454;2022-12-29T04:33:49;0.63;;;0.20;;
73563;SDS011;61834;50.196;6.454;2022-12-29T04:36:15;0.47;;;0.20;;
73563;SDS011;61834;50.196;6.454;2022-12-29T04:38:42;2.40;;;0.50;;
73563;SDS011;61834;50.196;6.454;2022-12-29T04:41:08;0.63;;;0.20;;
73563;SDS011;61834;50.196;6.454;2022-12-29T04:43:36;0.77;;;0.20;;
73563;SDS011;61834;50.196;6.454;2022-12-29T04:46:31;0.98;;;0.22;;
73563;SDS011;61834;50.196;6.454;2022-12-29T04:49:00;0.63;;;0.10;;
73563;SDS011;61834;50.196;6.454;2022-12-29T04:51:58;0.95;;;0.13;;
73563;SDS011;61834;50.196;6.454;2022-12-29T04:54:24;1.55;;;0.10;;
73563;SDS011;61834;50.196;6.454;2022-12-29T04:57:13;0.28;;;0.10;;
73563;SDS011;61834;50.196;6.454;2022-12-29T04:59:38;1.30;;;0.20;;
73563;SDS011;61834;50.196;6.454;2022-12-29T05:02:04;0.50;;;0.10;;
73563;SDS011;61834;50.196;6.454;2022-12-29T05:04:32;0.80;;;0.20;;
73563;SDS011;61834;50.196;6.454;2022-12-29T05:06:58;0.47;;;0.10;;
73563;SDS011;61834;50.196;6.454;2022-12-29T05:09:24;0.95;;;0.20;;
73563;SDS011;61834;50.196;6.454;2022-12-29T05:11:50;0.95;;;0.20;;
73563;SDS011;61834;50.196;6.454;2022-12-29T05:14:16;1.27;;;0.20;;
73563;SDS011;61834;50.196;6.454;2022-12-29T05:16:42;0.45;;;0.13;;
73563;SDS011;61834;50.196;6.454;2022-12-29T05:19:08;0.30;;;0.17;;
73563;SDS011;61834;50.196;6.454;2022-12-29T05:21:34;0.30;;;0.20;;
73563;SDS011;61834;50.196;6.454;2022-12-29T05:24:00;0.10;;;0.10;;
73563;SDS011;61834;50.196;6.454;2022-12-29T05:26:26;1.10;;;0.17;;
73563;SDS011;61834;50.196;6.454;2022-12-29T05:29:03;3.75;;;0.57;;
73563;SDS011;61834;50.196;6.454;2022-12-29T05:31:28;0.57;;;0.20;;
73563;SDS011;61834;50.196;6.454;2022-12-29T05:33:54;1.13;;;0.10;;
73563;SDS011;61834;50.196;6.454;2022-12-29T05:36:20;0.57;;;0.20;;
73563;SDS011;61834;50.196;6.454;2022-12-29T05:38:51;1.08;;;0.20;;
73563;SDS011;61834;50.196;6.454;2022-12-29T05:41:17;0.10;;;0.10;;
73563;SDS011;61834;50.196;6.454;2022-12-29T05:43:58;0.28;;;0.10;;
73563;SDS011;61834;50.196;6.454;2022-12-29T05:46:50;0.52;;;0.10;;
73563;SDS011;61834;50.196;6.454;2022-12-29T05:49:29;0.47;;;0.17;;
73563;SDS011;61834;50.196;6.454;2022-12-29T05:52:02;0.40;;;0.10;;
73563;SDS011;61834;50.196;6.454;2022-12-29T05:54:27;0.65;;;0.10;;
73563;SDS011;61834;50.196;6.454;2022-12-29T05:56:54;0.47;;;0.10;;
73563;SDS011;61834;50.196;6.454;2022-12-29T05:59:20;0.30;;;0.00;;
73563;SDS011;61834;50.196;6.454;2022-12-29T06:01:47;0.60;;;0.10;;
73563;SDS011;61834;50.196;6.454;2022-12-29T06:04:12;0.30;;;0.10;;
73563;SDS011;61834;50.196;6.454;2022-12-29T06:06:38;0.10;;;0.05;;
73563;SDS011;61834;50.196;6.454;2022-12-29T06:09:09;0.90;;;0.40;;
73563;SDS011;61834;50.196;6.454;2022-12-29T06:11:36;0.65;;;0.10;;
73563;SDS011;61834;50.196;6.454;2022-12-29T06:14:02;0.95;;;0.00;;
73563;SDS011;61834;50.196;6.454;2022-12-29T06:16:28;0.50;;;0.00;;
73563;SDS011;61834;50.196;6.454;2022-12-29T06:18:57;0.70;;;0.08;;
73563;SDS011;61834;50.196;6.454;2022-12-29T06:21:23;1.52;;;0.00;;
73563;SDS011;61834;50.196;6.454;2022-12-29T06:23:48;0.05;;;0.00;;
73563;SDS011;61834;50.196;6.454;2022-12-29T06:26:14;0.25;;;0.00;;
73563;SDS011;61834;50.196;6.454;2022-12-29T06:28:40;0.75;;;0.10;;
73563;SDS011;61834;50.196;6.454;2022-12-29T06:31:08;0.68;;;0.10;;
73563;SDS011;61834;50.196;6.454;2022-12-29T06:33:35;1.90;;;0.13;;
73563;SDS011;61834;50.196;6.454;2022-12-29T06:36:01;0.55;;;0.00;;
73563;SDS011;61834;50.196;6.454;2022-12-29T06:38:26;0.52;;;0.00;;
73563;SDS011;61834;50.196;6.454;2022-12-29T06:40:52;0.38;;;0.00;;
73563;SDS011;61834;50.196;6.454;2022-12-29T06:43:36;0.20;;;0.00;;
73563;SDS011;61834;50.196;6.454;2022-12-29T06:46:22;0.35;;;0.10;;
73563;SDS011;61834;50.196;6.454;2022-12-29T06:48:48;0.43;;;0.00;;
73563;SDS011;61834;50.196;6.454;2022-12-29T06:51:14;0.57;;;0.00;;
73563;SDS011;61834;50.196;6.454;2022-12-29T06:53:40;0.35;;;0.08;;
73563;SDS011;61834;50.196;6.454;2022-12-29T06:56:05;0.40;;;0.00;;
73563;SDS011;61834;50.196;6.454;2022-12-29T06:58:31;0.30;;;0.08;;
73563;SDS011;61834;50.196;6.454;2022-12-29T07:00:57;0.68;;;0.10;;
73563;SDS011;61834;50.196;6.454;2022-12-29T07:03:23;0.08;;;0.00;;
73563;SDS011;61834;50.196;6.454;2022-12-29T07:05:48;1.20;;;0.10;;
73563;SDS011;61834;50.196;6.454;2022-12-29T07:08:14;0.25;;;0.10;;
73563;SDS011;61834;50.196;6.454;2022-12-29T07:10:40;0.68;;;0.17;;
73563;SDS011;61834;50.196;6.454;2022-12-29T07:13:06;0.15;;;0.00;;
73563;SDS011;61834;50.196;6.454;2022-12-29T07:15:38;1.85;;;0.43;;
73563;SDS011;61834;50.196;6.454;2022-12-29T07:18:03;0.68;;;0.05;;
73563;SDS011;61834;50.196;6.454;2022-12-29T07:20:29;0.28;;;0.00;;
73563;SDS011;61834;50.196;6.454;2022-12-29T07:22:55;0.20;;;0.00;;
73563;SDS011;61834;50.196;6.454;2022-12-29T07:25:21;0.82;;;0.10;;
73563;SDS011;61834;50.196;6.454;2022-12-29T07:27:47;0.68;;;0.00;;
73563;SDS011;61834;50.196;6.454;2022-12-29T07:30:13;0.70;;;0.13;;
73563;SDS011;61834;50.196;6.454;2022-12-29T07:32:40;0.95;;;0.10;;
73563;SDS011;61834;50.196;6.454;2022-12-29T07:35:05;1.23;;;0.30;;
73563;SDS011;61834;50.196;6.454;2022-12-29T07:37:32;1.15;;;0.10;;
73563;SDS011;61834;50.196;6.454;2022-12-29T07:39:58;1.02;;;0.10;;
73563;SDS011;61834;50.196;6.454;2022-12-29T07:42:24;1.40;;;0.30;;
73563;SDS011;61834;50.196;6.454;2022-12-29T07:44:51;2.78;;;0.40;;
73563;SDS011;61834;50.196;6.454;2022-12-29T07:47:55;1.25;;;0.20;;
73563;SDS011;61834;50.196;6.454;2022-12-29T07:50:20;0.98;;;0.17;;
73563;SDS011;61834;50.196;6.454;2022-12-29T07:52:46;0.98;;;0.13;;
73563;SDS011;61834;50.196;6.454;2022-12-29T07:55:13;1.67;;;0.20;;
73563;SDS011;61834;50.196;6.454;2022-12-29T07:57:39;5.57;;;0.65;;
73563;SDS011;61834;50.196;6.454;2022-12-29T08:00:05;1.25;;;0.38;;
73563;SDS011;61834;50.196;6.454;2022-12-29T08:02:37;1.23;;;0.20;;
73563;SDS011;61834;50.196;6.454;2022-12-29T08:05:03;1.13;;;0.30;;
73563;SDS011;61834;50.196;6.454;2022-12-29T08:07:28;3.08;;;0.40;;
73563;SDS011;61834;50.196;6.454;2022-12-29T08:09:54;2.05;;;0.20;;
73563;SDS011;61834;50.196;6.454;2022-12-29T08:12:20;1.35;;;0.30;;
73563;SDS011;61834;50.196;6.454;2022-12-29T08:14:45;1.73;;;0.20;;
73563;SDS011;61834;50.196;6.454;2022-12-29T08:17:11;1.08;;;0.20;;
73563;SDS011;61834;50.196;6.454;2022-12-29T08:19:37;2.28;;;0.65;;
73563;SDS011;61834;50.196;6.454;2022-12-29T08:22:02;1.05;;;0.20;;
73563;SDS011;61834;50.196;6.454;2022-12-29T08:24:28;1.05;;;0.30;;
73563;SDS011;61834;50.196;6.454;2022-12-29T08:26:54;1.45;;;0.30;;
73563;SDS011;61834;50.196;6.454;2022-12-29T08:29:20;1.75;;;0.28;;
73563;SDS011;61834;50.196;6.454;2022-12-29T08:31:46;2.67;;;2.38;;
73563;SDS011;61834;50.196;6.454;2022-12-29T08:34:12;1.10;;;0.40;;
73563;SDS011;61834;50.196;6.454;2022-12-29T08:36:38;0.98;;;0.30;;
73563;SDS011;61834;50.196;6.454;2022-12-29T08:39:04;0.75;;;0.13;;
73563;SDS011;61834;50.196;6.454;2022-12-29T08:41:30;1.05;;;0.20;;
73563;SDS011;61834;50.196;6.454;2022-12-29T08:43:56;1.17;;;0.20;;
73563;SDS011;61834;50.196;6.454;2022-12-29T08:46:21;1.05;;;0.17;;
73563;SDS011;61834;50.196;6.454;2022-12-29T08:48:47;1.08;;;0.30;;
73563;SDS011;61834;50.196;6.454;2022-12-29T08:51:13;2.67;;;0.30;;
73563;SDS011;61834;50.196;6.454;2022-12-29T08:53:39;1.58;;;0.20;;
73563;SDS011;61834;50.196;6.454;2022-12-29T08:56:05;2.00;;;0.40;;
73563;SDS011;61834;50.196;6.454;2022-12-29T08:58:40;1.05;;;0.30;;
73563;SDS011;61834;50.196;6.454;2022-12-29T09:01:06;0.95;;;0.20;;
73563;SDS011;61834;50.196;6.454;2022-12-29T09:03:32;0.95;;;0.20;;
73563;SDS011;61834;50.196;6.454;2022-12-29T09:05:58;2.60;;;0.40;;
73563;SDS011;61834;50.196;6.454;2022-12-29T09:08:23;1.65;;;0.20;;
73563;SDS011;61834;50.196;6.454;2022-12-29T09:10:49;1.90;;;0.20;;
73563;SDS011;61834;50.196;6.454;2022-12-29T09:13:15;1.85;;;0.47;;
73563;SDS011;61834;50.196;6.454;2022-12-29T09:15:41;1.27;;;0.30;;
73563;SDS011;61834;50.196;6.454;2022-12-29T09:18:09;1.60;;;0.40;;
73563;SDS011;61834;50.196;6.454;2022-12-29T09:20:35;1.27;;;0.13;;
73563;SDS011;61834;50.196;6.454;2022-12-29T09:23:02;3.08;;;0.47;;
73563;SDS011;61834;50.196;6.454;2022-12-29T09:25:28;2.50;;;0.43;;
73563;SDS011;61834;50.196;6.454;2022-12-29T09:27:54;2.22;;;0.38;;
73563;SDS011;61834;50.196;6.454;2022-12-29T09:30:23;1.85;;;0.20;;
73563;SDS011;61834;50.196;6.454;2022-12-29T09:32:49;1.98;;;0.20;;
73563;SDS011;61834;50.196;6.454;2022-12-29T09:35:15;2.13;;;0.40;;
73563;SDS011;61834;50.196;6.454;2022-12-29T09:37:42;1.77;;;0.28;;
73563;SDS011;61834;50.196;6.454;2022-12-29T09:40:19;0.98;;;0.30;;
73563;SDS011;61834;50.196;6.454;2022-12-29T09:45:45;2.30;;;0.30;;
73563;SDS011;61834;50.196;6.454;2022-12-29T09:48:22;1.63;;;0.30;;
73563;SDS011;61834;50.196;6.454;2022-12-29T09:50:55;2.75;;;0.20;;
73563;SDS011;61834;50.196;6.454;2022-12-29T09:53:38;1.35;;;0.25;;
73563;SDS011;61834;50.196;6.454;2022-12-29T09:56:17;0.77;;;0.15;;
73563;SDS011;61834;50.196;6.454;2022-12-29T09:59:00;2.58;;;0.40;;
73563;SDS011;61834;50.196;6.454;2022-12-29T10:01:33;1.42;;;0.30;;
73563;SDS011;61834;50.196;6.454;2022-12-29T10:04:06;2.38;;;0.50;;
73563;SDS011;61834;50.196;6.454;2022-12-29T10:06:34;1.92;;;0.52;;
73563;SDS011;61834;50.196;6.454;2022-12-29T10:20:28;1.75;;;0.63;;
73563;SDS011;61834;50.196;6.454;2022-12-29T10:23:04;2.70;;;0.50;;
73563;SDS011;61834;50.196;6.454;2022-12-29T10:25:55;3.17;;;0.50;;
73563;SDS011;61834;50.196;6.454;2022-12-29T10:28:23;4.00;;;0.65;;
73563;SDS011;61834;50.196;6.454;2022-12-29T10:31:01;2.97;;;0.50;;
73563;SDS011;61834;50.196;6.454;2022-12-29T10:33:34;3.20;;;1.45;;
73563;SDS011;61834;50.196;6.454;2022-12-29T10:36:21;1.58;;;0.57;;
73563;SDS011;61834;50.196;6.454;2022-12-29T10:39:07;2.28;;;0.43;;
73563;SDS011;61834;50.196;6.454;2022-12-29T10:44:40;2.00;;;0.38;;
73563;SDS011;61834;50.196;6.454;2022-12-29T10:47:08;2.05;;;0.40;;
73563;SDS011;61834;50.196;6.454;2022-12-29T10:52:07;0.88;;;0.15;;
73563;SDS011;61834;50.196;6.454;2022-12-29T10:57:37;3.88;;;0.57;;
73563;SDS011;61834;50.196;6.454;2022-12-29T11:00:18;2.72;;;0.73;;
73563;SDS011;61834;50.196;6.454;2022-12-29T11:08:15;3.78;;;0.38;;
73563;SDS011;61834;50.196;6.454;2022-12-29T11:10:45;4.05;;;0.55;;
73563;SDS011;61834;50.196;6.454;2022-12-29T11:13:18;3.60;;;0.60;;
73563;SDS011;61834;50.196;6.454;2022-12-29T11:15:50;4.05;;;0.57;;
73563;SDS011;61834;50.196;6.454;2022-12-29T11:18:21;7.47;;;0.70;;
73563;SDS011;61834;50.196;6.454;2022-12-29T11:20:59;3.67;;;0.73;;
73563;SDS011;61834;50.196;6.454;2022-12-29T11:23:34;3.90;;;0.60;;
73563;SDS011;61834;50.196;6.454;2022-12-29T11:26:11;6.18;;;0.88;;
73563;SDS011;61834;50.196;6.454;2022-12-29T11:28:44;2.65;;;0.65;;
73563;SDS011;61834;50.196;6.454;2022-12-29T11:31:15;4.10;;;0.65;;
73563;SDS011;61834;50.196;6.454;2022-12-29T11:33:42;5.38;;;0.57;;
73563;SDS011;61834;50.196;6.454;2022-12-29T11:36:08;2.85;;;0.45;;
73563;SDS011;61834;50.196;6.454;2022-12-29T11:39:16;6.30;;;1.02;;
73563;SDS011;61834;50.196;6.454;2022-12-29T11:41:28;2.90;;;0.52;;
73563;SDS011;61834;50.196;6.454;2022-12-29T11:43:57;4.72;;;0.70;;
73563;SDS011;61834;50.196;6.454;2022-12-29T11:46:34;7.43;;;0.70;;
73563;SDS011;61834;50.196;6.454;2022-12-29T11:49:03;4.65;;;0.57;;
73563;SDS011;61834;50.196;6.454;2022-12-29T11:51:37;3.30;;;0.50;;
73563;SDS011;61834;50.196;6.454;2022-12-29T11:54:09;3.65;;;0.60;;
73563;SDS011;61834;50.196;6.454;2022-12-29T11:56:42;5.13;;;0.70;;
73563;SDS011;61834;50.196;6.454;2022-12-29T12:01:55;2.67;;;0.38;;
73563;SDS011;61834;50.196;6.454;2022-12-29T12:04:23;3.42;;;0.75;;
73563;SDS011;61834;50.196;6.454;2022-12-29T12:07:02;3.45;;;0.80;;
73563;SDS011;61834;50.196;6.454;2022-12-29T12:09:58;4.13;;;0.55;;
73563;SDS011;61834;50.196;6.454;2022-12-29T12:14:59;3.45;;;0.65;;
73563;SDS011;61834;50.196;6.454;2022-12-29T12:23:07;4.47;;;0.70;;
73563;SDS011;61834;50.196;6.454;2022-12-29T12:25:50;9.82;;;1.00;;
73563;SDS011;61834;50.196;6.454;2022-12-29T12:28:28;3.45;;;0.40;;
73563;SDS011;61834;50.196;6.454;2022-12-29T12:30:58;6.53;;;0.77;;
73563;SDS011;61834;50.196;6.454;2022-12-29T12:33:39;3.42;;;0.65;;
73563;SDS011;61834;50.196;6.454;2022-12-29T12:39:26;3.17;;;0.50;;
73563;SDS011;61834;50.196;6.454;2022-12-29T12:44:47;7.10;;;1.15;;
73563;SDS011;61834;50.196;6.454;2022-12-29T13:03:44;4.95;;;0.63;;
73563;SDS011;61834;50.196;6.454;2022-12-29T13:06:39;4.85;;;0.57;;
73563;SDS011;61834;50.196;6.454;2022-12-29T13:25:37;5.38;;;0.80;;
73563;SDS011;61834;50.196;6.454;2022-12-29T13:28:30;7.45;;;1.33;;
73563;SDS011;61834;50.196;6.454;2022-12-29T13:31:15;4.82;;;0.70;;
73563;SDS011;61834;50.196;6.454;2022-12-29T13:36:33;4.68;;;0.75;;
73563;SDS011;61834;50.196;6.454;2022-12-29T13:39:11;5.45;;;0.95;;
73563;SDS011;61834;50.196;6.454;2022-12-29T13:41:52;8.25;;;1.42;;
73563;SDS011;61834;50.196;6.454;2022-12-29T13:44:24;8.10;;;1.15;;
73563;SDS011;61834;50.196;6.454;2022-12-29T13:46:53;7.70;;;1.00;;
73563;SDS011;61834;50.196;6.454;2022-12-29T13:49:24;7.90;;;0.63;;
73563;SDS011;61834;50.196;6.454;2022-12-29T13:51:55;5.32;;;0.98;;
73563;SDS011;61834;50.196;6.454;2022-12-29T13:59:59;2.92;;;0.77;;
73563;SDS011;61834;50.196;6.454;2022-12-29T14:07:46;5.30;;;0.73;;
73563;SDS011;61834;50.196;6.454;2022-12-29T14:10:32;11.07;;;1.33;;
73563;SDS011;61834;50.196;6.454;2022-12-29T14:15:38;7.13;;;1.33;;
73563;SDS011;61834;50.196;6.454;2022-12-29T14:18:18;6.03;;;1.17;;
73563;SDS011;61834;50.196;6.454;2022-12-29T14:20:50;5.10;;;0.77;;
73563;SDS011;61834;50.196;6.454;2022-12-29T14:23:40;6.68;;;1.15;;
73563;SDS011;61834;50.196;6.454;2022-12-29T14:29:16;5.50;;;1.02;;
73563;SDS011;61834;50.196;6.454;2022-12-29T14:32:03;8.10;;;1.90;;
73563;SDS011;61834;50.196;6.454;2022-12-29T14:34:54;6.82;;;1.50;;
73563;SDS011;61834;50.196;6.454;2022-12-29T14:37:24;10.65;;;1.90;;
73563;SDS011;61834;50.196;6.454;2022-12-29T14:40:02;8.70;;;1.00;;
73563;SDS011;61834;50.196;6.454;2022-12-29T14:42:28;8.93;;;1.20;;
73563;SDS011;61834;50.196;6.454;2022-12-29T14:44:58;6.78;;;1.27;;
73563;SDS011;61834;50.196;6.454;2022-12-29T14:47:32;5.45;;;1.40;;
73563;SDS011;61834;50.196;6.454;2022-12-29T14:53:01;8.27;;;1.63;;
73563;SDS011;61834;50.196;6.454;2022-12-29T14:55:37;13.95;;;3.40;;
73563;SDS011;61834;50.196;6.454;2022-12-29T14:58:20;7.70;;;1.65;;
73563;SDS011;61834;50.196;6.454;2022-12-29T15:00:52;7.65;;;1.60;;
73563;SDS011;61834;50.196;6.454;2022-12-29T15:03:22;11.07;;;1.70;;
73563;SDS011;61834;50.196;6.454;2022-12-29T15:05:49;7.07;;;1.27;;
73563;SDS011;61834;50.196;6.454;2022-12-29T15:08:19;11.75;;;1.95;;
73563;SDS011;61834;50.196;6.454;2022-12-29T15:13:34;8.57;;;2.22;;
73563;SDS011;61834;50.196;6.454;2022-12-29T15:16:01;10.23;;;1.90;;
73563;SDS011;61834;50.196;6.454;2022-12-29T15:18:32;8.38;;;2.40;;
73563;SDS011;61834;50.196;6.454;2022-12-29T15:21:00;8.48;;;1.20;;
73563;SDS011;61834;50.196;6.454;2022-12-29T15:23:29;6.43;;;1.52;;
73563;SDS011;61834;50.196;6.454;2022-12-29T15:26:01;8.82;;;1.30;;
73563;SDS011;61834;50.196;6.454;2022-12-29T15:28:45;8.68;;;1.88;;
73563;SDS011;61834;50.196;6.454;2022-12-29T15:33:43;9.25;;;1.45;;
73563;SDS011;61834;50.196;6.454;2022-12-29T15:36:22;9.63;;;1.33;;
73563;SDS011;61834;50.196;6.454;2022-12-29T15:38:50;14.45;;;2.53;;
73563;SDS011;61834;50.196;6.454;2022-12-29T15:46:50;7.70;;;1.50;;
73563;SDS011;61834;50.196;6.454;2022-12-29T15:49:17;8.02;;;1.35;;
73563;SDS011;61834;50.196;6.454;2022-12-29T15:51:43;6.53;;;1.17;;
73563;SDS011;61834;50.196;6.454;2022-12-29T15:54:14;8.90;;;1.42;;
73563;SDS011;61834;50.196;6.454;2022-12-29T15:56:42;9.07;;;1.02;;
73563;SDS011;61834;50.196;6.454;2022-12-29T16:02:11;7.40;;;1.05;;
73563;SDS011;61834;50.196;6.454;2022-12-29T16:04:36;7.45;;;1.15;;
73563;SDS011;61834;50.196;6.454;2022-12-29T16:07:05;8.18;;;1.25;;
73563;SDS011;61834;50.196;6.454;2022-12-29T16:09:46;7.53;;;1.38;;
73563;SDS011;61834;50.196;6.454;2022-12-29T16:12:16;6.93;;;1.30;;
73563;SDS011;61834;50.196;6.454;2022-12-29T16:14:46;7.60;;;1.33;;
73563;SDS011;61834;50.196;6.454;2022-12-29T16:17:14;24.98;;;10.73;;
73563;SDS011;61834;50.196;6.454;2022-12-29T16:19:49;20.70;;;6.87;;
73563;SDS011;61834;50.196;6.454;2022-12-29T16:25:03;17.05;;;6.03;;
73563;SDS011;61834;50.196;6.454;2022-12-29T16:27:50;15.63;;;5.85;;
73563;SDS011;61834;50.196;6.454;2022-12-29T16:30:27;10.93;;;2.83;;
73563;SDS011;61834;50.196;6.454;2022-12-29T16:32:58;12.65;;;3.13;;
73563;SDS011;61834;50.196;6.454;2022-12-29T16:35:26;10.95;;;1.75;;
73563;SDS011;61834;50.196;6.454;2022-12-29T16:43:22;8.77;;;1.92;;
73563;SDS011;61834;50.196;6.454;2022-12-29T16:48:17;7.45;;;1.40;;
73563;SDS011;61834;50.196;6.454;2022-12-29T16:50:50;9.98;;;1.40;;
73563;SDS011;61834;50.196;6.454;2022-12-29T16:53:17;5.30;;;1.60;;
73563;SDS011;61834;50.196;6.454;2022-12-29T16:55:52;10.13;;;2.15;;
73563;SDS011;61834;50.196;6.454;2022-12-29T16:58:24;10.13;;;1.73;;
73563;SDS011;61834;50.196;6.454;2022-12-29T17:00:56;8.40;;;2.63;;
73563;SDS011;61834;50.196;6.454;2022-12-29T17:03:27;8.32;;;1.42;;
73563;SDS011;61834;50.196;6.454;2022-12-29T17:05:58;14.88;;;2.75;;
73563;SDS011;61834;50.196;6.454;2022-12-29T17:08:23;14.35;;;3.80;;
73563;SDS011;61834;50.196;6.454;2022-12-29T17:10:55;9.27;;;2.20;;
73563;SDS011;61834;50.196;6.454;2022-12-29T17:13:40;9.68;;;2.20;;
73563;SDS011;61834;50.196;6.454;2022-12-29T17:16:06;6.22;;;2.10;;
73563;SDS011;61834;50.196;6.454;2022-12-29T17:18:34;8.45;;;1.63;;
73563;SDS011;61834;50.196;6.454;2022-12-29T17:21:00;11.43;;;1.50;;
73563;SDS011;61834;50.196;6.454;2022-12-29T17:23:26;8.88;;;1.60;;
73563;SDS011;61834;50.196;6.454;2022-12-29T17:25:54;14.10;;;4.30;;
73563;SDS011;61834;50.196;6.454;2022-12-29T17:28:21;10.48;;;2.65;;
73563;SDS011;61834;50.196;6.454;2022-12-29T17:30:50;8.30;;;1.65;;
73563;SDS011;61834;50.196;6.454;2022-12-29T17:33:18;7.53;;;2.03;;
73563;SDS011;61834;50.196;6.454;2022-12-29T17:35:45;6.97;;;1.20;;
73563;SDS011;61834;50.196;6.454;2022-12-29T17:40:44;6.28;;;1.17;;
73563;SDS011;61834;50.196;6.454;2022-12-29T17:43:14;5.70;;;1.42;;
73563;SDS011;61834;50.196;6.454;2022-12-29T17:45:41;9.50;;;1.60;;
73563;SDS011;61834;50.196;6.454;2022-12-29T17:48:11;11.05;;;1.83;;
73563;SDS011;61834;50.196;6.454;2022-12-29T17:50:38;9.57;;;2.08;;
73563;SDS011;61834;50.196;6.454;2022-12-29T17:53:05;11.45;;;1.35;;
73563;SDS011;61834;50.196;6.454;2022-12-29T17:55:36;8.80;;;1.80;;
73563;SDS011;61834;50.196;6.454;2022-12-29T17:58:04;10.93;;;1.33;;
73563;SDS011;61834;50.196;6.454;2022-12-29T18:00:43;5.35;;;1.05;;
73563;SDS011;61834;50.196;6.454;2022-12-29T18:03:13;11.30;;;1.25;;
73563;SDS011;61834;50.196;6.454;2022-12-29T18:05:40;12.70;;;2.13;;
73563;SDS011;61834;50.196;6.454;2022-12-29T18:08:07;9.45;;;1.52;;
73563;SDS011;61834;50.196;6.454;2022-12-29T18:10:34;8.20;;;1.35;;
73563;SDS011;61834;50.196;6.454;2022-12-29T18:13:00;6.82;;;1.13;;
73563;SDS011;61834;50.196;6.454;2022-12-29T18:15:31;7.10;;;1.33;;
73563;SDS011;61834;50.196;6.454;2022-12-29T18:18:09;8.82;;;1.50;;
73563;SDS011;61834;50.196;6.454;2022-12-29T18:20:37;9.68;;;1.95;;
73563;SDS011;61834;50.196;6.454;2022-12-29T18:23:05;9.75;;;1.70;;
73563;SDS011;61834;50.196;6.454;2022-12-29T18:25:39;5.78;;;1.85;;
73563;SDS011;61834;50.196;6.454;2022-12-29T18:28:10;8.52;;;1.60;;
73563;SDS011;61834;50.196;6.454;2022-12-29T18:30:36;8.95;;;1.90;;
73563;SDS011;61834;50.196;6.454;2022-12-29T18:33:02;10.75;;;1.88;;
73563;SDS011;61834;50.196;6.454;2022-12-29T18:35:35;8.95;;;1.70;;
73563;SDS011;61834;50.196;6.454;2022-12-29T18:38:03;7.95;;;1.95;;
73563;SDS011;61834;50.196;6.454;2022-12-29T18:40:30;10.70;;;2.60;;
73563;SDS011;61834;50.196;6.454;2022-12-29T18:42:57;6.55;;;2.10;;